sensor_id;sensor_type;location;lat;lon;timestamp;temperature;humidity
10468;DHT22;5281;48.878;9.394;2022-07-23T00:00:58;26.40;93.60
10468;DHT22;5281;48.878;9.394;2022-07-23T00:03:25;26.40;93.50
10468;DHT22;5281;48.878;9.394;2022-07-23T00:05:52;26.40;93.00
10468;DHT22;5281;48.878;9.394;2022-07-23T00:08:19;26.40;92.70
10468;DHT22;5281;48.878;9.394;2022-07-23T00:10:45;26.30;92.30
10468;DHT22;5281;48.878;9.394;2022-07-23T00:13:12;26.30;92.10
10468;DHT22;5281;48.878;9.394;2022-07-23T00:15:39;26.30;92.00
10468;DHT22;5281;48.878;9.394;2022-07-23T00:18:07;26.20;91.90
10468;DHT22;5281;48.878;9.394;2022-07-23T00:20:33;26.20;91.80
10468;DHT22;5281;48.878;9.394;2022-07-23T00:23:00;26.20;91.80
10468;DHT22;5281;48.878;9.394;2022-07-23T00:25:27;26.20;92.00
10468;DHT22;5281;48.878;9.394;2022-07-23T00:27:54;26.20;92.00
10468;DHT22;5281;48.878;9.394;2022-07-23T00:30:21;26.20;92.00
10468;DHT22;5281;48.878;9.394;2022-07-23T00:32:49;26.20;91.90
10468;DHT22;5281;48.878;9.394;2022-07-23T00:35:19;26.20;91.80
10468;DHT22;5281;48.878;9.394;2022-07-23T00:37:46;26.20;91.50
10468;DHT22;5281;48.878;9.394;2022-07-23T00:40:14;26.10;91.50
10468;DHT22;5281;48.878;9.394;2022-07-23T00:42:40;26.20;91.60
10468;DHT22;5281;48.878;9.394;2022-07-23T00:45:08;26.20;91.40
10468;DHT22;5281;48.878;9.394;2022-07-23T00:47:35;26.20;91.10
10468;DHT22;5281;48.878;9.394;2022-07-23T00:50:03;26.20;90.90
10468;DHT22;5281;48.878;9.394;2022-07-23T00:52:31;26.20;90.70
10468;DHT22;5281;48.878;9.394;2022-07-23T00:54:59;26.30;90.40
10468;DHT22;5281;48.878;9.394;2022-07-23T00:57:26;26.30;91.30
10468;DHT22;5281;48.878;9.394;2022-07-23T00:59:52;26.30;93.30
10468;DHT22;5281;48.878;9.394;2022-07-23T01:02:19;26.30;94.90
10468;DHT22;5281;48.878;9.394;2022-07-23T01:04:46;26.20;95.40
10468;DHT22;5281;48.878;9.394;2022-07-23T01:07:13;26.20;95.80
10468;DHT22;5281;48.878;9.394;2022-07-23T01:09:41;26.10;96.00
10468;DHT22;5281;48.878;9.394;2022-07-23T01:12:08;26.10;96.30
10468;DHT22;5281;48.878;9.394;2022-07-23T01:14:35;26.00;96.40
10468;DHT22;5281;48.878;9.394;2022-07-23T01:17:02;25.90;95.90
10468;DHT22;5281;48.878;9.394;2022-07-23T01:19:29;25.80;95.60
10468;DHT22;5281;48.878;9.394;2022-07-23T01:21:57;25.70;95.70
10468;DHT22;5281;48.878;9.394;2022-07-23T01:24:25;25.60;95.50
10468;DHT22;5281;48.878;9.394;2022-07-23T01:26:53;25.50;95.30
10468;DHT22;5281;48.878;9.394;2022-07-23T01:29:20;25.50;95.30
10468;DHT22;5281;48.878;9.394;2022-07-23T01:31:47;25.40;95.30
10468;DHT22;5281;48.878;9.394;2022-07-23T01:34:14;25.40;95.10
10468;DHT22;5281;48.878;9.394;2022-07-23T01:36:41;25.30;95.10
10468;DHT22;5281;48.878;9.394;2022-07-23T01:39:07;25.30;95.00
10468;DHT22;5281;48.878;9.394;2022-07-23T01:41:35;25.20;95.10
10468;DHT22;5281;48.878;9.394;2022-07-23T01:44:02;25.20;95.20
10468;DHT22;5281;48.878;9.394;2022-07-23T01:46:29;25.20;94.90
10468;DHT22;5281;48.878;9.394;2022-07-23T01:48:55;25.20;94.50
10468;DHT22;5281;48.878;9.394;2022-07-23T01:51:22;25.10;94.60
10468;DHT22;5281;48.878;9.394;2022-07-23T01:53:49;25.10;94.40
10468;DHT22;5281;48.878;9.394;2022-07-23T01:56:15;25.10;94.30
10468;DHT22;5281;48.878;9.394;2022-07-23T01:58:46;25.20;94.20
10468;DHT22;5281;48.878;9.394;2022-07-23T02:01:13;25.20;94.00
10468;DHT22;5281;48.878;9.394;2022-07-23T02:03:40;25.20;93.90
10468;DHT22;5281;48.878;9.394;2022-07-23T02:06:07;25.30;93.90
10468;DHT22;5281;48.878;9.394;2022-07-23T02:08:33;25.30;93.80
10468;DHT22;5281;48.878;9.394;2022-07-23T02:11:00;25.30;93.80
10468;DHT22;5281;48.878;9.394;2022-07-23T02:13:27;25.20;94.10
10468;DHT22;5281;48.878;9.394;2022-07-23T02:15:55;25.20;94.30
10468;DHT22;5281;48.878;9.394;2022-07-23T02:18:22;25.20;94.50
10468;DHT22;5281;48.878;9.394;2022-07-23T02:20:49;25.20;94.50
10468;DHT22;5281;48.878;9.394;2022-07-23T02:23:15;25.10;94.40
10468;DHT22;5281;48.878;9.394;2022-07-23T02:25:42;25.10;94.30
10468;DHT22;5281;48.878;9.394;2022-07-23T02:28:09;25.00;94.50
10468;DHT22;5281;48.878;9.394;2022-07-23T02:30:36;24.90;94.50
10468;DHT22;5281;48.878;9.394;2022-07-23T02:33:04;24.80;94.50
10468;DHT22;5281;48.878;9.394;2022-07-23T02:35:31;24.70;94.60
10468;DHT22;5281;48.878;9.394;2022-07-23T02:37:58;24.70;94.80
10468;DHT22;5281;48.878;9.394;2022-07-23T02:40:24;24.70;94.90
10468;DHT22;5281;48.878;9.394;2022-07-23T02:42:51;24.60;94.90
10468;DHT22;5281;48.878;9.394;2022-07-23T02:45:17;24.60;95.00
10468;DHT22;5281;48.878;9.394;2022-07-23T02:47:44;24.60;95.10
10468;DHT22;5281;48.878;9.394;2022-07-23T02:50:12;24.60;95.30
10468;DHT22;5281;48.878;9.394;2022-07-23T02:52:39;24.50;95.40
10468;DHT22;5281;48.878;9.394;2022-07-23T02:55:07;24.50;95.40
10468;DHT22;5281;48.878;9.394;2022-07-23T02:57:33;24.40;95.50
10468;DHT22;5281;48.878;9.394;2022-07-23T03:00:00;24.40;95.70
10468;DHT22;5281;48.878;9.394;2022-07-23T03:02:27;24.30;95.80
10468;DHT22;5281;48.878;9.394;2022-07-23T03:04:54;24.30;96.10
10468;DHT22;5281;48.878;9.394;2022-07-23T03:07:22;24.20;96.30
10468;DHT22;5281;48.878;9.394;2022-07-23T03:09:48;24.20;96.50
10468;DHT22;5281;48.878;9.394;2022-07-23T03:12:15;24.10;96.80
10468;DHT22;5281;48.878;9.394;2022-07-23T03:14:42;24.10;97.00
10468;DHT22;5281;48.878;9.394;2022-07-23T03:17:09;24.00;97.30
10468;DHT22;5281;48.878;9.394;2022-07-23T03:19:35;24.00;97.50
10468;DHT22;5281;48.878;9.394;2022-07-23T03:22:04;24.00;97.80
10468;DHT22;5281;48.878;9.394;2022-07-23T03:24:32;23.90;98.00
10468;DHT22;5281;48.878;9.394;2022-07-23T03:27:13;23.90;98.10
10468;DHT22;5281;48.878;9.394;2022-07-23T03:29:40;23.90;98.30
10468;DHT22;5281;48.878;9.394;2022-07-23T03:32:06;23.90;98.50
10468;DHT22;5281;48.878;9.394;2022-07-23T03:34:33;24.00;98.70
10468;DHT22;5281;48.878;9.394;2022-07-23T03:37:00;24.00;98.80
10468;DHT22;5281;48.878;9.394;2022-07-23T03:39:27;24.00;98.90
10468;DHT22;5281;48.878;9.394;2022-07-23T03:41:55;24.00;99.10
10468;DHT22;5281;48.878;9.394;2022-07-23T03:44:22;24.00;99.30
10468;DHT22;5281;48.878;9.394;2022-07-23T03:46:48;23.90;99.30
10468;DHT22;5281;48.878;9.394;2022-07-23T03:49:15;23.90;99.30
10468;DHT22;5281;48.878;9.394;2022-07-23T03:51:42;24.00;99.30
10468;DHT22;5281;48.878;9.394;2022-07-23T03:54:09;24.00;99.40
10468;DHT22;5281;48.878;9.394;2022-07-23T03:56:35;24.10;99.30
10468;DHT22;5281;48.878;9.394;2022-07-23T03:59:03;24.00;99.40
10468;DHT22;5281;48.878;9.394;2022-07-23T04:01:30;24.00;99.50
10468;DHT22;5281;48.878;9.394;2022-07-23T04:03:57;24.00;99.70
10468;DHT22;5281;48.878;9.394;2022-07-23T04:06:24;24.00;99.90
10468;DHT22;5281;48.878;9.394;2022-07-23T04:08:51;24.10;99.90
10468;DHT22;5281;48.878;9.394;2022-07-23T04:11:18;24.10;99.90
10468;DHT22;5281;48.878;9.394;2022-07-23T04:13:44;24.10;99.80
10468;DHT22;5281;48.878;9.394;2022-07-23T04:16:13;24.10;99.90
10468;DHT22;5281;48.878;9.394;2022-07-23T04:18:39;24.10;99.90
10468;DHT22;5281;48.878;9.394;2022-07-23T04:21:06;24.10;99.90
10468;DHT22;5281;48.878;9.394;2022-07-23T04:23:33;24.20;99.90
10468;DHT22;5281;48.878;9.394;2022-07-23T04:26:00;24.30;99.90
10468;DHT22;5281;48.878;9.394;2022-07-23T04:28:26;24.30;99.90
10468;DHT22;5281;48.878;9.394;2022-07-23T04:30:56;24.40;99.90
10468;DHT22;5281;48.878;9.394;2022-07-23T04:33:24;24.50;99.80
10468;DHT22;5281;48.878;9.394;2022-07-23T04:35:50;24.50;99.80
10468;DHT22;5281;48.878;9.394;2022-07-23T04:38:17;24.60;99.70
10468;DHT22;5281;48.878;9.394;2022-07-23T04:40:44;24.70;99.80
10468;DHT22;5281;48.878;9.394;2022-07-23T04:43:11;24.70;99.80
10468;DHT22;5281;48.878;9.394;2022-07-23T04:45:37;24.80;99.60
10468;DHT22;5281;48.878;9.394;2022-07-23T04:48:04;24.90;99.50
10468;DHT22;5281;48.878;9.394;2022-07-23T04:50:33;24.90;99.60
10468;DHT22;5281;48.878;9.394;2022-07-23T04:52:59;24.90;99.60
10468;DHT22;5281;48.878;9.394;2022-07-23T04:55:26;24.80;99.60
10468;DHT22;5281;48.878;9.394;2022-07-23T04:57:53;24.70;99.80
10468;DHT22;5281;48.878;9.394;2022-07-23T05:00:20;24.70;99.80
10468;DHT22;5281;48.878;9.394;2022-07-23T05:02:47;24.80;99.60
10468;DHT22;5281;48.878;9.394;2022-07-23T05:05:13;25.00;99.30
10468;DHT22;5281;48.878;9.394;2022-07-23T05:07:41;25.20;98.90
10468;DHT22;5281;48.878;9.394;2022-07-23T05:10:08;25.50;98.40
10468;DHT22;5281;48.878;9.394;2022-07-23T05:12:35;25.70;98.00
10468;DHT22;5281;48.878;9.394;2022-07-23T05:15:02;25.90;97.50
10468;DHT22;5281;48.878;9.394;2022-07-23T05:17:29;26.10;97.20
10468;DHT22;5281;48.878;9.394;2022-07-23T05:19:55;26.20;96.90
10468;DHT22;5281;48.878;9.394;2022-07-23T05:22:22;26.40;96.60
10468;DHT22;5281;48.878;9.394;2022-07-23T05:24:50;26.40;96.40
10468;DHT22;5281;48.878;9.394;2022-07-23T05:27:17;26.50;96.30
10468;DHT22;5281;48.878;9.394;2022-07-23T05:29:43;26.60;96.10
10468;DHT22;5281;48.878;9.394;2022-07-23T05:32:10;26.90;95.80
10468;DHT22;5281;48.878;9.394;2022-07-23T05:34:37;27.20;94.60
10468;DHT22;5281;48.878;9.394;2022-07-23T05:37:03;27.60;94.00
10468;DHT22;5281;48.878;9.394;2022-07-23T05:39:30;28.50;92.80
10468;DHT22;5281;48.878;9.394;2022-07-23T05:41:58;29.50;90.20
10468;DHT22;5281;48.878;9.394;2022-07-23T05:44:25;30.10;87.70
10468;DHT22;5281;48.878;9.394;2022-07-23T05:46:52;30.30;85.70
10468;DHT22;5281;48.878;9.394;2022-07-23T05:49:19;30.20;85.60
10468;DHT22;5281;48.878;9.394;2022-07-23T05:51:46;29.90;85.90
10468;DHT22;5281;48.878;9.394;2022-07-23T05:54:13;29.60;86.80
10468;DHT22;5281;48.878;9.394;2022-07-23T05:56:39;29.20;87.90
10468;DHT22;5281;48.878;9.394;2022-07-23T05:59:07;29.00;88.70
10468;DHT22;5281;48.878;9.394;2022-07-23T06:01:34;28.80;88.90
10468;DHT22;5281;48.878;9.394;2022-07-23T06:04:01;28.70;90.00
10468;DHT22;5281;48.878;9.394;2022-07-23T06:06:28;28.80;90.00
10468;DHT22;5281;48.878;9.394;2022-07-23T06:08:54;28.80;90.00
10468;DHT22;5281;48.878;9.394;2022-07-23T06:11:21;28.90;89.60
10468;DHT22;5281;48.878;9.394;2022-07-23T06:13:48;28.90;90.00
10468;DHT22;5281;48.878;9.394;2022-07-23T06:16:16;28.70;90.80
10468;DHT22;5281;48.878;9.394;2022-07-23T06:18:42;28.40;91.90
10468;DHT22;5281;48.878;9.394;2022-07-23T06:21:09;28.10;93.10
10468;DHT22;5281;48.878;9.394;2022-07-23T06:23:36;27.80;93.60
10468;DHT22;5281;48.878;9.394;2022-07-23T06:26:02;27.60;93.80
10468;DHT22;5281;48.878;9.394;2022-07-23T06:28:29;27.40;94.00
10468;DHT22;5281;48.878;9.394;2022-07-23T06:30:56;27.10;94.70
10468;DHT22;5281;48.878;9.394;2022-07-23T06:33:24;26.90;95.10
10468;DHT22;5281;48.878;9.394;2022-07-23T06:35:50;27.00;95.40
10468;DHT22;5281;48.878;9.394;2022-07-23T06:38:17;27.70;94.30
10468;DHT22;5281;48.878;9.394;2022-07-23T06:40:44;29.30;91.90
10468;DHT22;5281;48.878;9.394;2022-07-23T06:43:11;30.90;87.80
10468;DHT22;5281;48.878;9.394;2022-07-23T06:45:37;32.20;80.90
10468;DHT22;5281;48.878;9.394;2022-07-23T06:48:04;33.20;75.60
10468;DHT22;5281;48.878;9.394;2022-07-23T06:50:32;33.50;75.20
10468;DHT22;5281;48.878;9.394;2022-07-23T06:53:00;33.40;73.10
10468;DHT22;5281;48.878;9.394;2022-07-23T06:55:26;32.70;73.00
10468;DHT22;5281;48.878;9.394;2022-07-23T06:57:53;31.70;76.20
10468;DHT22;5281;48.878;9.394;2022-07-23T07:00:20;31.00;78.80
10468;DHT22;5281;48.878;9.394;2022-07-23T07:02:47;30.40;80.80
10468;DHT22;5281;48.878;9.394;2022-07-23T07:05:13;30.00;82.80
10468;DHT22;5281;48.878;9.394;2022-07-23T07:07:41;29.60;83.90
10468;DHT22;5281;48.878;9.394;2022-07-23T07:10:09;29.40;85.10
10468;DHT22;5281;48.878;9.394;2022-07-23T07:12:35;29.20;86.90
10468;DHT22;5281;48.878;9.394;2022-07-23T07:15:02;28.80;88.90
10468;DHT22;5281;48.878;9.394;2022-07-23T07:17:29;28.40;90.40
10468;DHT22;5281;48.878;9.394;2022-07-23T07:19:56;28.00;91.20
10468;DHT22;5281;48.878;9.394;2022-07-23T07:22:23;27.70;92.00
10468;DHT22;5281;48.878;9.394;2022-07-23T07:24:51;27.40;92.60
10468;DHT22;5281;48.878;9.394;2022-07-23T07:27:17;27.00;93.30
10468;DHT22;5281;48.878;9.394;2022-07-23T07:29:44;26.60;94.10
10468;DHT22;5281;48.878;9.394;2022-07-23T07:32:11;26.40;94.90
10468;DHT22;5281;48.878;9.394;2022-07-23T07:34:37;26.20;95.60
10468;DHT22;5281;48.878;9.394;2022-07-23T07:37:04;26.40;96.00
10468;DHT22;5281;48.878;9.394;2022-07-23T07:39:31;26.90;95.40
10468;DHT22;5281;48.878;9.394;2022-07-23T07:41:59;27.00;95.00
10468;DHT22;5281;48.878;9.394;2022-07-23T07:44:25;26.80;95.30
10468;DHT22;5281;48.878;9.394;2022-07-23T07:46:52;26.50;96.00
10468;DHT22;5281;48.878;9.394;2022-07-23T07:49:19;26.20;96.80
10468;DHT22;5281;48.878;9.394;2022-07-23T07:51:46;26.10;97.60
10468;DHT22;5281;48.878;9.394;2022-07-23T07:54:13;26.00;97.90
10468;DHT22;5281;48.878;9.394;2022-07-23T07:56:40;26.00;98.30
10468;DHT22;5281;48.878;9.394;2022-07-23T07:59:08;25.90;99.00
10468;DHT22;5281;48.878;9.394;2022-07-23T08:01:36;25.70;99.60
10468;DHT22;5281;48.878;9.394;2022-07-23T08:04:03;25.70;99.90
10468;DHT22;5281;48.878;9.394;2022-07-23T08:06:30;25.90;99.70
10468;DHT22;5281;48.878;9.394;2022-07-23T08:08:57;26.60;98.70
10468;DHT22;5281;48.878;9.394;2022-07-23T08:11:23;28.20;95.50
10468;DHT22;5281;48.878;9.394;2022-07-23T08:13:50;28.80;94.40
10468;DHT22;5281;48.878;9.394;2022-07-23T08:16:18;29.20;94.00
10468;DHT22;5281;48.878;9.394;2022-07-23T08:18:45;29.40;93.00
10468;DHT22;5281;48.878;9.394;2022-07-23T08:21:12;29.30;92.90
10468;DHT22;5281;48.878;9.394;2022-07-23T08:23:38;29.10;92.90
10468;DHT22;5281;48.878;9.394;2022-07-23T08:26:05;28.90;93.10
10468;DHT22;5281;48.878;9.394;2022-07-23T08:28:32;28.50;93.40
10468;DHT22;5281;48.878;9.394;2022-07-23T08:30:59;28.20;94.00
10468;DHT22;5281;48.878;9.394;2022-07-23T08:33:27;27.90;94.70
10468;DHT22;5281;48.878;9.394;2022-07-23T08:35:54;27.70;95.00
10468;DHT22;5281;48.878;9.394;2022-07-23T08:38:22;27.60;95.20
10468;DHT22;5281;48.878;9.394;2022-07-23T08:40:52;28.40;94.30
10468;DHT22;5281;48.878;9.394;2022-07-23T08:43:21;29.30;92.80
10468;DHT22;5281;48.878;9.394;2022-07-23T08:45:50;29.50;91.40
10468;DHT22;5281;48.878;9.394;2022-07-23T08:48:18;29.40;91.10
10468;DHT22;5281;48.878;9.394;2022-07-23T08:50:48;29.20;91.30
10468;DHT22;5281;48.878;9.394;2022-07-23T08:53:17;28.80;91.90
10468;DHT22;5281;48.878;9.394;2022-07-23T08:55:44;28.60;92.70
10468;DHT22;5281;48.878;9.394;2022-07-23T08:58:12;28.40;92.10
10468;DHT22;5281;48.878;9.394;2022-07-23T09:00:39;28.50;92.30
10468;DHT22;5281;48.878;9.394;2022-07-23T09:03:05;28.70;92.20
10468;DHT22;5281;48.878;9.394;2022-07-23T09:05:32;29.00;91.20
10468;DHT22;5281;48.878;9.394;2022-07-23T09:08:11;29.30;90.50
10468;DHT22;5281;48.878;9.394;2022-07-23T09:10:50;29.60;90.10
10468;DHT22;5281;48.878;9.394;2022-07-23T09:13:24;29.80;89.30
10468;DHT22;5281;48.878;9.394;2022-07-23T09:15:53;30.00;87.70
10468;DHT22;5281;48.878;9.394;2022-07-23T09:18:27;30.20;86.70
10468;DHT22;5281;48.878;9.394;2022-07-23T09:21:08;30.40;85.20
10468;DHT22;5281;48.878;9.394;2022-07-23T09:23:41;30.50;83.50
10468;DHT22;5281;48.878;9.394;2022-07-23T09:26:26;30.70;82.20
10468;DHT22;5281;48.878;9.394;2022-07-23T09:28:58;31.00;82.10
10468;DHT22;5281;48.878;9.394;2022-07-23T09:31:27;31.40;80.90
10468;DHT22;5281;48.878;9.394;2022-07-23T09:34:07;31.80;78.90
10468;DHT22;5281;48.878;9.394;2022-07-23T09:36:33;31.90;77.70
10468;DHT22;5281;48.878;9.394;2022-07-23T09:39:02;32.10;75.90
10468;DHT22;5281;48.878;9.394;2022-07-23T09:41:38;32.30;75.20
10468;DHT22;5281;48.878;9.394;2022-07-23T09:44:11;32.70;73.30
10468;DHT22;5281;48.878;9.394;2022-07-23T09:46:39;33.00;70.50
10468;DHT22;5281;48.878;9.394;2022-07-23T09:49:19;33.20;69.70
10468;DHT22;5281;48.878;9.394;2022-07-23T09:51:51;33.50;68.80
10468;DHT22;5281;48.878;9.394;2022-07-23T09:54:29;33.70;67.30
10468;DHT22;5281;48.878;9.394;2022-07-23T09:56:58;33.60;67.00
10468;DHT22;5281;48.878;9.394;2022-07-23T09:59:26;33.40;66.00
10468;DHT22;5281;48.878;9.394;2022-07-23T10:01:55;33.20;66.60
10468;DHT22;5281;48.878;9.394;2022-07-23T10:04:23;32.90;67.50
10468;DHT22;5281;48.878;9.394;2022-07-23T10:06:52;32.60;68.50
10468;DHT22;5281;48.878;9.394;2022-07-23T10:09:23;32.40;69.60
10468;DHT22;5281;48.878;9.394;2022-07-23T10:11:52;32.30;70.50
10468;DHT22;5281;48.878;9.394;2022-07-23T10:14:21;32.10;71.30
10468;DHT22;5281;48.878;9.394;2022-07-23T10:16:48;31.80;71.20
10468;DHT22;5281;48.878;9.394;2022-07-23T10:19:15;31.80;71.10
10468;DHT22;5281;48.878;9.394;2022-07-23T10:21:45;31.70;71.10
10468;DHT22;5281;48.878;9.394;2022-07-23T10:24:18;31.60;70.90
10468;DHT22;5281;48.878;9.394;2022-07-23T10:26:54;31.30;71.30
10468;DHT22;5281;48.878;9.394;2022-07-23T10:29:36;30.80;72.60
10468;DHT22;5281;48.878;9.394;2022-07-23T10:32:13;30.60;72.00
10468;DHT22;5281;48.878;9.394;2022-07-23T10:34:48;30.60;72.50
10468;DHT22;5281;48.878;9.394;2022-07-23T10:37:22;30.70;71.80
10468;DHT22;5281;48.878;9.394;2022-07-23T10:40:08;30.80;71.40
10468;DHT22;5281;48.878;9.394;2022-07-23T10:42:37;30.90;72.10
10468;DHT22;5281;48.878;9.394;2022-07-23T10:45:23;31.00;73.00
10468;DHT22;5281;48.878;9.394;2022-07-23T10:47:51;31.10;72.70
10468;DHT22;5281;48.878;9.394;2022-07-23T10:50:20;31.20;73.60
10468;DHT22;5281;48.878;9.394;2022-07-23T10:53:10;31.20;69.30
10468;DHT22;5281;48.878;9.394;2022-07-23T10:55:47;31.10;71.30
10468;DHT22;5281;48.878;9.394;2022-07-23T10:58:20;30.80;71.80
10468;DHT22;5281;48.878;9.394;2022-07-23T11:00:47;30.80;72.10
10468;DHT22;5281;48.878;9.394;2022-07-23T11:03:34;30.90;72.70
10468;DHT22;5281;48.878;9.394;2022-07-23T11:06:04;31.10;71.70
10468;DHT22;5281;48.878;9.394;2022-07-23T11:08:31;31.20;71.00
10468;DHT22;5281;48.878;9.394;2022-07-23T11:11:10;31.50;69.10
10468;DHT22;5281;48.878;9.394;2022-07-23T11:13:44;31.80;68.00
10468;DHT22;5281;48.878;9.394;2022-07-23T11:16:17;31.90;67.60
10468;DHT22;5281;48.878;9.394;2022-07-23T11:18:58;31.90;66.70
10468;DHT22;5281;48.878;9.394;2022-07-23T11:21:51;32.10;68.00
10468;DHT22;5281;48.878;9.394;2022-07-23T11:24:20;32.30;70.10
10468;DHT22;5281;48.878;9.394;2022-07-23T11:26:56;32.30;69.80
10468;DHT22;5281;48.878;9.394;2022-07-23T11:29:44;32.20;70.40
10468;DHT22;5281;48.878;9.394;2022-07-23T11:32:35;32.30;69.60
10468;DHT22;5281;48.878;9.394;2022-07-23T11:35:21;32.10;66.70
10468;DHT22;5281;48.878;9.394;2022-07-23T11:37:49;31.90;66.90
10468;DHT22;5281;48.878;9.394;2022-07-23T11:40:19;31.80;66.30
10468;DHT22;5281;48.878;9.394;2022-07-23T11:42:52;31.60;67.70
10468;DHT22;5281;48.878;9.394;2022-07-23T11:45:21;31.50;67.70
10468;DHT22;5281;48.878;9.394;2022-07-23T11:47:48;31.70;67.90
10468;DHT22;5281;48.878;9.394;2022-07-23T11:50:15;31.90;67.20
10468;DHT22;5281;48.878;9.394;2022-07-23T11:52:42;32.20;66.20
10468;DHT22;5281;48.878;9.394;2022-07-23T11:55:10;32.40;65.80
10468;DHT22;5281;48.878;9.394;2022-07-23T11:57:39;32.70;67.40
10468;DHT22;5281;48.878;9.394;2022-07-23T12:00:09;32.80;64.80
10468;DHT22;5281;48.878;9.394;2022-07-23T12:02:37;33.00;65.10
10468;DHT22;5281;48.878;9.394;2022-07-23T12:05:05;33.20;65.20
10468;DHT22;5281;48.878;9.394;2022-07-23T12:07:34;33.20;65.90
10468;DHT22;5281;48.878;9.394;2022-07-23T12:10:04;33.20;66.60
10468;DHT22;5281;48.878;9.394;2022-07-23T12:12:40;33.30;67.20
10468;DHT22;5281;48.878;9.394;2022-07-23T12:15:08;33.60;66.20
10468;DHT22;5281;48.878;9.394;2022-07-23T12:17:38;34.00;65.90
10468;DHT22;5281;48.878;9.394;2022-07-23T12:20:08;34.20;64.80
10468;DHT22;5281;48.878;9.394;2022-07-23T12:22:37;34.30;64.70
10468;DHT22;5281;48.878;9.394;2022-07-23T12:25:07;34.40;64.50
10468;DHT22;5281;48.878;9.394;2022-07-23T12:27:34;34.40;63.80
10468;DHT22;5281;48.878;9.394;2022-07-23T12:30:19;34.40;63.80
10468;DHT22;5281;48.878;9.394;2022-07-23T12:32:49;34.20;62.30
10468;DHT22;5281;48.878;9.394;2022-07-23T12:35:16;34.20;60.50
10468;DHT22;5281;48.878;9.394;2022-07-23T12:37:45;34.10;61.50
10468;DHT22;5281;48.878;9.394;2022-07-23T12:40:19;34.10;61.60
10468;DHT22;5281;48.878;9.394;2022-07-23T12:42:47;34.00;63.50
10468;DHT22;5281;48.878;9.394;2022-07-23T12:45:14;33.60;65.00
10468;DHT22;5281;48.878;9.394;2022-07-23T12:47:59;33.00;66.20
10468;DHT22;5281;48.878;9.394;2022-07-23T12:50:34;32.60;67.30
10468;DHT22;5281;48.878;9.394;2022-07-23T12:53:03;32.10;68.80
10468;DHT22;5281;48.878;9.394;2022-07-23T12:55:30;31.80;69.80
10468;DHT22;5281;48.878;9.394;2022-07-23T12:58:03;31.50;71.10
10468;DHT22;5281;48.878;9.394;2022-07-23T13:00:31;31.40;71.00
10468;DHT22;5281;48.878;9.394;2022-07-23T13:02:59;31.30;71.90
10468;DHT22;5281;48.878;9.394;2022-07-23T13:05:26;31.30;72.10
10468;DHT22;5281;48.878;9.394;2022-07-23T13:07:52;31.50;72.30
10468;DHT22;5281;48.878;9.394;2022-07-23T13:10:19;31.80;71.60
10468;DHT22;5281;48.878;9.394;2022-07-23T13:12:46;31.90;70.50
10468;DHT22;5281;48.878;9.394;2022-07-23T13:15:13;32.10;70.20
10468;DHT22;5281;48.878;9.394;2022-07-23T13:17:39;32.00;70.50
10468;DHT22;5281;48.878;9.394;2022-07-23T13:20:11;31.80;70.50
10468;DHT22;5281;48.878;9.394;2022-07-23T13:22:38;31.80;70.50
10468;DHT22;5281;48.878;9.394;2022-07-23T13:25:06;31.90;70.00
10468;DHT22;5281;48.878;9.394;2022-07-23T13:27:33;32.10;70.30
10468;DHT22;5281;48.878;9.394;2022-07-23T13:29:59;32.40;68.90
10468;DHT22;5281;48.878;9.394;2022-07-23T13:32:26;32.60;69.30
10468;DHT22;5281;48.878;9.394;2022-07-23T13:34:53;32.80;68.30
10468;DHT22;5281;48.878;9.394;2022-07-23T13:37:21;32.90;68.10
10468;DHT22;5281;48.878;9.394;2022-07-23T13:39:48;32.80;68.00
10468;DHT22;5281;48.878;9.394;2022-07-23T13:42:15;32.80;67.70
10468;DHT22;5281;48.878;9.394;2022-07-23T13:44:41;33.00;66.20
10468;DHT22;5281;48.878;9.394;2022-07-23T13:47:08;33.10;65.90
10468;DHT22;5281;48.878;9.394;2022-07-23T13:49:35;33.10;65.70
10468;DHT22;5281;48.878;9.394;2022-07-23T13:52:02;33.00;65.00
10468;DHT22;5281;48.878;9.394;2022-07-23T13:54:30;32.80;65.40
10468;DHT22;5281;48.878;9.394;2022-07-23T13:56:57;32.70;66.00
10468;DHT22;5281;48.878;9.394;2022-07-23T13:59:24;32.60;66.50
10468;DHT22;5281;48.878;9.394;2022-07-23T14:01:50;32.60;67.10
10468;DHT22;5281;48.878;9.394;2022-07-23T14:04:17;32.40;67.30
10468;DHT22;5281;48.878;9.394;2022-07-23T14:06:44;32.20;68.00
10468;DHT22;5281;48.878;9.394;2022-07-23T14:09:10;32.00;68.00
10468;DHT22;5281;48.878;9.394;2022-07-23T14:11:38;32.10;68.70
10468;DHT22;5281;48.878;9.394;2022-07-23T14:14:05;32.20;68.80
10468;DHT22;5281;48.878;9.394;2022-07-23T14:16:32;32.10;67.80
10468;DHT22;5281;48.878;9.394;2022-07-23T14:18:59;32.30;66.90
10468;DHT22;5281;48.878;9.394;2022-07-23T14:21:26;32.40;67.00
10468;DHT22;5281;48.878;9.394;2022-07-23T14:23:53;32.60;66.50
10468;DHT22;5281;48.878;9.394;2022-07-23T14:26:19;32.60;66.30
10468;DHT22;5281;48.878;9.394;2022-07-23T14:28:47;32.40;66.90
10468;DHT22;5281;48.878;9.394;2022-07-23T14:31:14;32.30;66.20
10468;DHT22;5281;48.878;9.394;2022-07-23T14:33:41;32.30;66.20
10468;DHT22;5281;48.878;9.394;2022-07-23T14:36:08;32.40;66.60
10468;DHT22;5281;48.878;9.394;2022-07-23T14:38:34;32.50;65.50
10468;DHT22;5281;48.878;9.394;2022-07-23T14:41:01;32.60;64.00
10468;DHT22;5281;48.878;9.394;2022-07-23T14:43:32;32.70;63.10
10468;DHT22;5281;48.878;9.394;2022-07-23T14:46:00;32.80;61.80
10468;DHT22;5281;48.878;9.394;2022-07-23T14:48:26;32.80;60.50
10468;DHT22;5281;48.878;9.394;2022-07-23T14:50:53;32.80;63.20
10468;DHT22;5281;48.878;9.394;2022-07-23T14:53:20;32.50;64.30
10468;DHT22;5281;48.878;9.394;2022-07-23T14:55:47;32.50;63.80
10468;DHT22;5281;48.878;9.394;2022-07-23T14:58:13;32.30;64.60
10468;DHT22;5281;48.878;9.394;2022-07-23T15:00:40;32.10;64.50
10468;DHT22;5281;48.878;9.394;2022-07-23T15:03:09;32.30;64.30
10468;DHT22;5281;48.878;9.394;2022-07-23T15:05:35;32.30;63.60
10468;DHT22;5281;48.878;9.394;2022-07-23T15:08:02;32.50;62.70
10468;DHT22;5281;48.878;9.394;2022-07-23T15:10:29;32.60;62.40
10468;DHT22;5281;48.878;9.394;2022-07-23T15:12:56;32.60;62.40
10468;DHT22;5281;48.878;9.394;2022-07-23T15:15:23;32.60;63.00
10468;DHT22;5281;48.878;9.394;2022-07-23T15:17:49;32.50;63.10
10468;DHT22;5281;48.878;9.394;2022-07-23T15:20:18;32.40;62.90
10468;DHT22;5281;48.878;9.394;2022-07-23T15:22:44;32.40;63.00
10468;DHT22;5281;48.878;9.394;2022-07-23T15:25:13;32.30;63.30
10468;DHT22;5281;48.878;9.394;2022-07-23T15:27:40;32.30;63.80
10468;DHT22;5281;48.878;9.394;2022-07-23T15:30:07;32.10;64.30
10468;DHT22;5281;48.878;9.394;2022-07-23T15:32:34;32.00;64.40
10468;DHT22;5281;48.878;9.394;2022-07-23T15:35:01;32.10;64.10
10468;DHT22;5281;48.878;9.394;2022-07-23T15:37:32;32.10;64.30
10468;DHT22;5281;48.878;9.394;2022-07-23T15:39:58;32.10;64.50
10468;DHT22;5281;48.878;9.394;2022-07-23T15:42:25;31.90;65.10
10468;DHT22;5281;48.878;9.394;2022-07-23T15:44:52;31.60;65.30
10468;DHT22;5281;48.878;9.394;2022-07-23T15:47:18;31.50;65.70
10468;DHT22;5281;48.878;9.394;2022-07-23T15:49:47;31.40;65.80
10468;DHT22;5281;48.878;9.394;2022-07-23T15:52:13;31.30;66.50